sensor_id;sensor_type;location;lat;lon;timestamp;P1;durP1;ratioP1;P2;durP2;ratioP2
23658;SDS011;12006;42.666;23.326;2022-09-09T00:00:15;6.20;;;5.18;;
23658;SDS011;12006;42.666;23.326;2022-09-09T00:02:41;5.82;;;5.20;;
23658;SDS011;12006;42.666;23.326;2022-09-09T00:07:53;8.13;;;6.72;;
23658;SDS011;12006;42.666;23.326;2022-09-09T00:12:54;6.10;;;5.40;;
23658;SDS011;12006;42.666;23.326;2022-09-09T00:15:23;5.40;;;4.85;;
23658;SDS011;12006;42.666;23.326;2022-09-09T00:17:58;5.63;;;5.10;;
23658;SDS011;12006;42.666;23.326;2022-09-09T00:23:00;5.10;;;4.68;;
23658;SDS011;12006;42.666;23.326;2022-09-09T00:25:34;8.63;;;6.10;;
23658;SDS011;12006;42.666;23.326;2022-09-09T00:28:02;6.28;;;5.15;;
23658;SDS011;12006;42.666;23.326;2022-09-09T00:30:31;5.95;;;5.18;;
23658;SDS011;12006;42.666;23.326;2022-09-09T00:33:00;7.05;;;6.35;;
23658;SDS011;12006;42.666;23.326;2022-09-09T00:35:33;6.65;;;5.60;;
23658;SDS011;12006;42.666;23.326;2022-09-09T00:38:18;6.90;;;5.72;;
23658;SDS011;12006;42.666;23.326;2022-09-09T00:43:29;5.85;;;4.93;;
23658;SDS011;12006;42.666;23.326;2022-09-09T00:48:25;8.23;;;6.07;;
23658;SDS011;12006;42.666;23.326;2022-09-09T00:50:59;6.20;;;5.55;;
23658;SDS011;12006;42.666;23.326;2022-09-09T00:53:39;5.30;;;4.80;;
23658;SDS011;12006;42.666;23.326;2022-09-09T00:56:14;5.53;;;5.03;;
23658;SDS011;12006;42.666;23.326;2022-09-09T00:58:42;6.90;;;6.00;;
23658;SDS011;12006;42.666;23.326;2022-09-09T01:01:11;6.90;;;5.83;;
23658;SDS011;12006;42.666;23.326;2022-09-09T01:03:39;8.00;;;6.13;;
23658;SDS011;12006;42.666;23.326;2022-09-09T01:06:20;5.90;;;5.00;;
23658;SDS011;12006;42.666;23.326;2022-09-09T01:11:19;6.30;;;5.38;;
23658;SDS011;12006;42.666;23.326;2022-09-09T01:13:45;8.10;;;7.22;;
23658;SDS011;12006;42.666;23.326;2022-09-09T01:16:14;7.63;;;5.95;;
23658;SDS011;12006;42.666;23.326;2022-09-09T01:18:45;6.82;;;5.80;;
23658;SDS011;12006;42.666;23.326;2022-09-09T01:23:51;6.60;;;5.65;;
23658;SDS011;12006;42.666;23.326;2022-09-09T01:26:30;10.97;;;6.40;;
23658;SDS011;12006;42.666;23.326;2022-09-09T01:28:57;8.43;;;6.38;;
23658;SDS011;12006;42.666;23.326;2022-09-09T01:31:26;7.38;;;5.40;;
23658;SDS011;12006;42.666;23.326;2022-09-09T01:33:52;6.82;;;5.40;;
23658;SDS011;12006;42.666;23.326;2022-09-09T01:37:03;6.65;;;5.85;;
23658;SDS011;12006;42.666;23.326;2022-09-09T01:39:03;6.93;;;6.22;;
23658;SDS011;12006;42.666;23.326;2022-09-09T01:41:29;7.50;;;5.70;;
23658;SDS011;12006;42.666;23.326;2022-09-09T01:43:54;8.38;;;5.70;;
23658;SDS011;12006;42.666;23.326;2022-09-09T01:46:21;8.68;;;6.35;;
23658;SDS011;12006;42.666;23.326;2022-09-09T01:48:46;7.18;;;6.03;;
23658;SDS011;12006;42.666;23.326;2022-09-09T01:51:12;8.02;;;6.20;;
23658;SDS011;12006;42.666;23.326;2022-09-09T01:53:38;6.65;;;5.95;;
23658;SDS011;12006;42.666;23.326;2022-09-09T01:56:13;7.00;;;6.30;;
23658;SDS011;12006;42.666;23.326;2022-09-09T01:58:47;7.82;;;6.13;;
23658;SDS011;12006;42.666;23.326;2022-09-09T02:04:01;8.20;;;5.93;;
23658;SDS011;12006;42.666;23.326;2022-09-09T02:06:38;8.25;;;5.85;;
23658;SDS011;12006;42.666;23.326;2022-09-09T02:09:05;7.68;;;5.90;;
23658;SDS011;12006;42.666;23.326;2022-09-09T02:11:31;6.93;;;6.23;;
23658;SDS011;12006;42.666;23.326;2022-09-09T02:14:01;8.20;;;5.72;;
23658;SDS011;12006;42.666;23.326;2022-09-09T02:18:56;7.28;;;5.70;;
23658;SDS011;12006;42.666;23.326;2022-09-09T02:21:22;6.95;;;5.95;;
23658;SDS011;12006;42.666;23.326;2022-09-09T02:23:48;6.20;;;4.97;;
23658;SDS011;12006;42.666;23.326;2022-09-09T02:26:17;6.23;;;5.50;;
23658;SDS011;12006;42.666;23.326;2022-09-09T02:28:45;6.53;;;5.93;;
23658;SDS011;12006;42.666;23.326;2022-09-09T02:31:11;7.32;;;5.82;;
23658;SDS011;12006;42.666;23.326;2022-09-09T02:33:38;7.22;;;6.30;;
23658;SDS011;12006;42.666;23.326;2022-09-09T02:36:05;6.43;;;5.53;;
23658;SDS011;12006;42.666;23.326;2022-09-09T02:38:33;7.57;;;5.83;;
23658;SDS011;12006;42.666;23.326;2022-09-09T02:41:00;8.17;;;6.47;;
23658;SDS011;12006;42.666;23.326;2022-09-09T02:43:25;8.70;;;6.83;;
23658;SDS011;12006;42.666;23.326;2022-09-09T02:53:17;7.57;;;6.13;;
23658;SDS011;12006;42.666;23.326;2022-09-09T02:55:55;8.20;;;6.47;;
23658;SDS011;12006;42.666;23.326;2022-09-09T02:58:22;7.53;;;6.27;;
23658;SDS011;12006;42.666;23.326;2022-09-09T03:00:49;8.47;;;5.70;;
23658;SDS011;12006;42.666;23.326;2022-09-09T03:03:15;7.47;;;6.57;;
23658;SDS011;12006;42.666;23.326;2022-09-09T03:05:41;9.07;;;7.27;;
23658;SDS011;12006;42.666;23.326;2022-09-09T03:08:06;8.07;;;6.40;;
23658;SDS011;12006;42.666;23.326;2022-09-09T03:10:32;6.75;;;6.03;;
23658;SDS011;12006;42.666;23.326;2022-09-09T03:12:57;7.40;;;6.10;;
23658;SDS011;12006;42.666;23.326;2022-09-09T03:15:23;7.37;;;6.63;;
23658;SDS011;12006;42.666;23.326;2022-09-09T03:17:48;7.63;;;6.83;;
23658;SDS011;12006;42.666;23.326;2022-09-09T03:20:13;6.37;;;5.60;;
23658;SDS011;12006;42.666;23.326;2022-09-09T03:22:39;6.17;;;5.13;;
23658;SDS011;12006;42.666;23.326;2022-09-09T03:25:04;7.83;;;6.93;;
23658;SDS011;12006;42.666;23.326;2022-09-09T03:27:30;6.83;;;5.83;;
23658;SDS011;12006;42.666;23.326;2022-09-09T03:29:55;8.23;;;6.90;;
23658;SDS011;12006;42.666;23.326;2022-09-09T03:32:21;8.23;;;6.50;;
23658;SDS011;12006;42.666;23.326;2022-09-09T03:34:47;8.32;;;6.13;;
23658;SDS011;12006;42.666;23.326;2022-09-09T03:37:14;7.47;;;6.30;;
23658;SDS011;12006;42.666;23.326;2022-09-09T03:39:40;7.03;;;5.73;;
23658;SDS011;12006;42.666;23.326;2022-09-09T03:42:05;7.77;;;5.97;;
23658;SDS011;12006;42.666;23.326;2022-09-09T03:44:30;6.32;;;5.72;;
23658;SDS011;12006;42.666;23.326;2022-09-09T03:46:56;7.17;;;6.07;;
23658;SDS011;12006;42.666;23.326;2022-09-09T03:49:21;8.07;;;6.60;;
23658;SDS011;12006;42.666;23.326;2022-09-09T03:51:47;8.27;;;6.43;;
23658;SDS011;12006;42.666;23.326;2022-09-09T03:54:13;9.17;;;6.23;;
23658;SDS011;12006;42.666;23.326;2022-09-09T03:56:38;7.33;;;6.33;;
23658;SDS011;12006;42.666;23.326;2022-09-09T03:59:04;6.80;;;6.03;;
23658;SDS011;12006;42.666;23.326;2022-09-09T04:01:29;8.70;;;7.03;;
23658;SDS011;12006;42.666;23.326;2022-09-09T04:03:55;7.17;;;6.07;;
23658;SDS011;12006;42.666;23.326;2022-09-09T04:06:23;7.60;;;6.10;;
23658;SDS011;12006;42.666;23.326;2022-09-09T04:08:48;9.13;;;6.87;;
23658;SDS011;12006;42.666;23.326;2022-09-09T04:11:14;7.30;;;6.17;;
23658;SDS011;12006;42.666;23.326;2022-09-09T04:13:40;6.90;;;6.17;;
23658;SDS011;12006;42.666;23.326;2022-09-09T04:16:06;7.43;;;6.40;;
23658;SDS011;12006;42.666;23.326;2022-09-09T04:18:32;8.73;;;6.50;;
23658;SDS011;12006;42.666;23.326;2022-09-09T04:20:59;8.87;;;6.93;;
23658;SDS011;12006;42.666;23.326;2022-09-09T04:23:25;8.10;;;6.17;;
23658;SDS011;12006;42.666;23.326;2022-09-09T04:25:53;8.50;;;6.87;;
23658;SDS011;12006;42.666;23.326;2022-09-09T04:28:19;8.33;;;7.57;;
23658;SDS011;12006;42.666;23.326;2022-09-09T04:30:45;8.80;;;6.65;;
23658;SDS011;12006;42.666;23.326;2022-09-09T04:33:10;10.15;;;7.68;;
23658;SDS011;12006;42.666;23.326;2022-09-09T04:35:36;8.27;;;6.47;;
23658;SDS011;12006;42.666;23.326;2022-09-09T04:38:02;8.25;;;6.95;;
23658;SDS011;12006;42.666;23.326;2022-09-09T04:40:28;10.77;;;7.82;;
23658;SDS011;12006;42.666;23.326;2022-09-09T04:42:54;8.13;;;6.65;;
23658;SDS011;12006;42.666;23.326;2022-09-09T04:45:20;10.95;;;7.28;;
23658;SDS011;12006;42.666;23.326;2022-09-09T04:47:45;8.15;;;6.78;;
23658;SDS011;12006;42.666;23.326;2022-09-09T04:50:10;9.70;;;7.32;;
23658;SDS011;12006;42.666;23.326;2022-09-09T04:52:37;8.52;;;6.57;;
23658;SDS011;12006;42.666;23.326;2022-09-09T04:55:02;9.40;;;7.88;;
23658;SDS011;12006;42.666;23.326;2022-09-09T04:57:28;8.75;;;6.85;;
23658;SDS011;12006;42.666;23.326;2022-09-09T04:59:53;9.40;;;6.80;;
23658;SDS011;12006;42.666;23.326;2022-09-09T05:02:19;8.02;;;6.47;;
23658;SDS011;12006;42.666;23.326;2022-09-09T05:04:44;7.38;;;6.60;;
23658;SDS011;12006;42.666;23.326;2022-09-09T05:07:09;9.27;;;6.93;;
23658;SDS011;12006;42.666;23.326;2022-09-09T05:09:35;8.15;;;7.35;;
23658;SDS011;12006;42.666;23.326;2022-09-09T05:12:00;9.55;;;7.35;;
23658;SDS011;12006;42.666;23.326;2022-09-09T05:14:26;8.65;;;7.70;;
23658;SDS011;12006;42.666;23.326;2022-09-09T05:16:52;8.40;;;7.30;;
23658;SDS011;12006;42.666;23.326;2022-09-09T05:19:17;8.50;;;7.60;;
23658;SDS011;12006;42.666;23.326;2022-09-09T05:21:44;11.23;;;7.78;;
23658;SDS011;12006;42.666;23.326;2022-09-09T05:24:09;9.15;;;7.45;;
23658;SDS011;12006;42.666;23.326;2022-09-09T05:26:34;8.93;;;7.03;;
23658;SDS011;12006;42.666;23.326;2022-09-09T05:29:00;10.52;;;8.38;;
23658;SDS011;12006;42.666;23.326;2022-09-09T05:31:26;8.10;;;7.03;;
23658;SDS011;12006;42.666;23.326;2022-09-09T05:33:54;7.97;;;6.97;;
23658;SDS011;12006;42.666;23.326;2022-09-09T05:36:20;9.65;;;6.88;;
23658;SDS011;12006;42.666;23.326;2022-09-09T05:38:45;8.63;;;7.43;;
23658;SDS011;12006;42.666;23.326;2022-09-09T05:41:11;9.10;;;6.32;;
23658;SDS011;12006;42.666;23.326;2022-09-09T05:43:37;8.23;;;6.30;;
23658;SDS011;12006;42.666;23.326;2022-09-09T05:46:06;7.88;;;6.65;;
23658;SDS011;12006;42.666;23.326;2022-09-09T05:48:35;9.48;;;6.50;;
23658;SDS011;12006;42.666;23.326;2022-09-09T05:51:02;8.77;;;7.30;;
23658;SDS011;12006;42.666;23.326;2022-09-09T05:53:28;6.95;;;6.20;;
23658;SDS011;12006;42.666;23.326;2022-09-09T05:56:03;8.80;;;6.90;;
23658;SDS011;12006;42.666;23.326;2022-09-09T05:58:30;9.27;;;7.53;;
23658;SDS011;12006;42.666;23.326;2022-09-09T06:01:05;6.55;;;5.35;;
23658;SDS011;12006;42.666;23.326;2022-09-09T06:03:32;6.03;;;4.72;;
23658;SDS011;12006;42.666;23.326;2022-09-09T06:06:00;7.90;;;6.57;;
23658;SDS011;12006;42.666;23.326;2022-09-09T06:08:26;5.43;;;4.22;;
23658;SDS011;12006;42.666;23.326;2022-09-09T06:10:51;5.72;;;4.50;;
23658;SDS011;12006;42.666;23.326;2022-09-09T06:13:17;6.20;;;5.60;;
23658;SDS011;12006;42.666;23.326;2022-09-09T06:15:49;8.13;;;6.03;;
23658;SDS011;12006;42.666;23.326;2022-09-09T06:18:15;6.95;;;6.25;;
23658;SDS011;12006;42.666;23.326;2022-09-09T06:20:52;7.13;;;5.55;;
23658;SDS011;12006;42.666;23.326;2022-09-09T06:23:18;6.50;;;5.32;;
23658;SDS011;12006;42.666;23.326;2022-09-09T06:25:45;5.90;;;5.13;;
23658;SDS011;12006;42.666;23.326;2022-09-09T06:28:10;6.68;;;5.68;;
23658;SDS011;12006;42.666;23.326;2022-09-09T06:30:35;8.98;;;5.32;;
23658;SDS011;12006;42.666;23.326;2022-09-09T06:33:01;5.70;;;5.18;;
23658;SDS011;12006;42.666;23.326;2022-09-09T06:35:27;5.45;;;4.97;;
23658;SDS011;12006;42.666;23.326;2022-09-09T06:37:53;6.90;;;6.20;;
23658;SDS011;12006;42.666;23.326;2022-09-09T06:40:18;6.25;;;5.57;;
23658;SDS011;12006;42.666;23.326;2022-09-09T06:42:43;7.78;;;5.70;;
23658;SDS011;12006;42.666;23.326;2022-09-09T06:45:08;5.72;;;5.22;;
23658;SDS011;12006;42.666;23.326;2022-09-09T06:47:34;7.22;;;5.78;;
23658;SDS011;12006;42.666;23.326;2022-09-09T06:49:59;5.95;;;5.35;;
23658;SDS011;12006;42.666;23.326;2022-09-09T06:52:25;5.93;;;5.32;;
23658;SDS011;12006;42.666;23.326;2022-09-09T06:54:50;7.70;;;5.93;;
23658;SDS011;12006;42.666;23.326;2022-09-09T06:57:15;5.65;;;5.15;;
23658;SDS011;12006;42.666;23.326;2022-09-09T06:59:41;7.35;;;5.55;;
23658;SDS011;12006;42.666;23.326;2022-09-09T07:02:07;6.70;;;4.60;;
23658;SDS011;12006;42.666;23.326;2022-09-09T07:04:33;6.68;;;5.10;;
23658;SDS011;12006;42.666;23.326;2022-09-09T07:06:58;6.40;;;5.25;;
23658;SDS011;12006;42.666;23.326;2022-09-09T07:09:23;8.18;;;5.43;;
23658;SDS011;12006;42.666;23.326;2022-09-09T07:11:49;7.18;;;5.07;;
23658;SDS011;12006;42.666;23.326;2022-09-09T07:14:16;5.85;;;5.35;;
23658;SDS011;12006;42.666;23.326;2022-09-09T07:16:42;6.03;;;5.43;;
23658;SDS011;12006;42.666;23.326;2022-09-09T07:19:08;5.82;;;5.25;;
23658;SDS011;12006;42.666;23.326;2022-09-09T07:21:33;6.43;;;5.85;;
23658;SDS011;12006;42.666;23.326;2022-09-09T07:23:58;7.25;;;5.35;;
23658;SDS011;12006;42.666;23.326;2022-09-09T07:26:25;6.53;;;5.93;;
23658;SDS011;12006;42.666;23.326;2022-09-09T07:28:51;5.45;;;4.95;;
23658;SDS011;12006;42.666;23.326;2022-09-09T07:31:17;4.88;;;4.47;;
23658;SDS011;12006;42.666;23.326;2022-09-09T07:33:43;5.47;;;4.45;;
23658;SDS011;12006;42.666;23.326;2022-09-09T07:36:10;5.65;;;4.85;;
23658;SDS011;12006;42.666;23.326;2022-09-09T07:38:40;5.25;;;4.75;;
23658;SDS011;12006;42.666;23.326;2022-09-09T07:41:08;6.20;;;5.05;;
23658;SDS011;12006;42.666;23.326;2022-09-09T07:43:37;4.90;;;4.40;;
23658;SDS011;12006;42.666;23.326;2022-09-09T07:46:03;5.50;;;4.40;;
23658;SDS011;12006;42.666;23.326;2022-09-09T07:48:29;6.15;;;5.25;;
23658;SDS011;12006;42.666;23.326;2022-09-09T07:51:02;4.63;;;4.22;;
23658;SDS011;12006;42.666;23.326;2022-09-09T07:53:28;4.53;;;3.97;;
23658;SDS011;12006;42.666;23.326;2022-09-09T07:55:53;4.90;;;4.35;;
23658;SDS011;12006;42.666;23.326;2022-09-09T07:58:20;4.53;;;4.13;;
23658;SDS011;12006;42.666;23.326;2022-09-09T08:00:45;5.82;;;5.18;;
23658;SDS011;12006;42.666;23.326;2022-09-09T08:03:10;7.07;;;6.18;;
23658;SDS011;12006;42.666;23.326;2022-09-09T08:05:35;5.90;;;5.32;;
23658;SDS011;12006;42.666;23.326;2022-09-09T08:08:01;4.90;;;4.50;;
23658;SDS011;12006;42.666;23.326;2022-09-09T08:10:28;5.43;;;4.45;;
23658;SDS011;12006;42.666;23.326;2022-09-09T08:12:53;4.28;;;3.88;;
23658;SDS011;12006;42.666;23.326;2022-09-09T08:15:20;4.45;;;4.05;;
23658;SDS011;12006;42.666;23.326;2022-09-09T08:17:45;4.60;;;4.20;;
23658;SDS011;12006;42.666;23.326;2022-09-09T08:20:10;4.25;;;3.67;;
23658;SDS011;12006;42.666;23.326;2022-09-09T08:22:36;4.05;;;3.65;;
23658;SDS011;12006;42.666;23.326;2022-09-09T08:25:02;6.07;;;4.13;;
23658;SDS011;12006;42.666;23.326;2022-09-09T08:27:31;5.90;;;4.32;;
23658;SDS011;12006;42.666;23.326;2022-09-09T08:29:57;4.03;;;3.72;;
23658;SDS011;12006;42.666;23.326;2022-09-09T08:32:22;4.43;;;3.92;;
23658;SDS011;12006;42.666;23.326;2022-09-09T08:34:47;5.80;;;4.80;;
23658;SDS011;12006;42.666;23.326;2022-09-09T08:37:14;4.85;;;4.07;;
23658;SDS011;12006;42.666;23.326;2022-09-09T08:39:39;3.95;;;3.65;;
23658;SDS011;12006;42.666;23.326;2022-09-09T08:42:08;4.63;;;3.85;;
23658;SDS011;12006;42.666;23.326;2022-09-09T08:52:53;4.32;;;3.92;;
23658;SDS011;12006;42.666;23.326;2022-09-09T08:57:46;3.35;;;3.15;;
23658;SDS011;12006;42.666;23.326;2022-09-09T09:00:12;3.83;;;3.42;;
23658;SDS011;12006;42.666;23.326;2022-09-09T09:02:49;4.32;;;3.85;;
23658;SDS011;12006;42.666;23.326;2022-09-09T09:05:25;3.25;;;3.05;;
23658;SDS011;12006;42.666;23.326;2022-09-09T09:10:45;3.95;;;3.60;;
23658;SDS011;12006;42.666;23.326;2022-09-09T09:13:15;4.40;;;4.00;;
23658;SDS011;12006;42.666;23.326;2022-09-09T09:15:42;5.63;;;5.15;;
23658;SDS011;12006;42.666;23.326;2022-09-09T09:18:10;4.47;;;4.07;;
23658;SDS011;12006;42.666;23.326;2022-09-09T09:23:06;4.20;;;3.88;;
23658;SDS011;12006;42.666;23.326;2022-09-09T09:25:39;5.25;;;4.55;;
23658;SDS011;12006;42.666;23.326;2022-09-09T09:30:36;5.43;;;4.72;;
23658;SDS011;12006;42.666;23.326;2022-09-09T09:35:50;6.82;;;3.60;;
23658;SDS011;12006;42.666;23.326;2022-09-09T09:38:23;6.35;;;5.75;;
23658;SDS011;12006;42.666;23.326;2022-09-09T09:40:56;8.90;;;7.93;;
23658;SDS011;12006;42.666;23.326;2022-09-09T09:45:51;5.80;;;4.30;;
23658;SDS011;12006;42.666;23.326;2022-09-09T09:48:16;4.22;;;3.83;;
23658;SDS011;12006;42.666;23.326;2022-09-09T09:53:17;5.50;;;3.83;;
23658;SDS011;12006;42.666;23.326;2022-09-09T09:55:46;3.92;;;3.58;;
23658;SDS011;12006;42.666;23.326;2022-09-09T09:58:14;4.65;;;4.22;;
23658;SDS011;12006;42.666;23.326;2022-09-09T10:00:47;4.93;;;3.90;;
23658;SDS011;12006;42.666;23.326;2022-09-09T10:03:21;4.03;;;3.72;;
23658;SDS011;12006;42.666;23.326;2022-09-09T10:05:47;3.60;;;3.35;;
23658;SDS011;12006;42.666;23.326;2022-09-09T10:08:16;4.43;;;4.03;;
23658;SDS011;12006;42.666;23.326;2022-09-09T10:11:00;4.60;;;4.20;;
23658;SDS011;12006;42.666;23.326;2022-09-09T10:16:02;4.57;;;3.80;;
23658;SDS011;12006;42.666;23.326;2022-09-09T10:32:37;6.68;;;6.00;;
23658;SDS011;12006;42.666;23.326;2022-09-09T10:40:25;6.10;;;5.55;;
23658;SDS011;12006;42.666;23.326;2022-09-09T10:42:53;4.40;;;4.00;;
23658;SDS011;12006;42.666;23.326;2022-09-09T10:45:28;5.82;;;4.28;;
23658;SDS011;12006;42.666;23.326;2022-09-09T10:48:05;5.10;;;4.60;;
23658;SDS011;12006;42.666;23.326;2022-09-09T10:55:27;5.95;;;4.35;;
23658;SDS011;12006;42.666;23.326;2022-09-09T10:57:57;4.47;;;4.07;;
23658;SDS011;12006;42.666;23.326;2022-09-09T11:00:38;5.00;;;4.50;;
23658;SDS011;12006;42.666;23.326;2022-09-09T11:03:04;5.15;;;4.22;;
23658;SDS011;12006;42.666;23.326;2022-09-09T11:05:31;4.72;;;4.30;;
23658;SDS011;12006;42.666;23.326;2022-09-09T11:08:11;4.97;;;4.35;;
23658;SDS011;12006;42.666;23.326;2022-09-09T11:10:45;5.05;;;4.60;;
23658;SDS011;12006;42.666;23.326;2022-09-09T11:13:15;5.22;;;4.75;;
23658;SDS011;12006;42.666;23.326;2022-09-09T11:15:43;7.40;;;4.72;;
23658;SDS011;12006;42.666;23.326;2022-09-09T11:18:13;4.93;;;4.53;;
23658;SDS011;12006;42.666;23.326;2022-09-09T11:20:41;7.80;;;5.25;;
23658;SDS011;12006;42.666;23.326;2022-09-09T11:23:11;5.35;;;4.95;;
23658;SDS011;12006;42.666;23.326;2022-09-09T11:25:42;7.15;;;5.05;;
23658;SDS011;12006;42.666;23.326;2022-09-09T11:40:36;5.93;;;5.43;;
23658;SDS011;12006;42.666;23.326;2022-09-09T11:43:12;6.18;;;5.50;;
23658;SDS011;12006;42.666;23.326;2022-09-09T11:45:42;5.97;;;5.47;;
23658;SDS011;12006;42.666;23.326;2022-09-09T11:48:25;5.88;;;5.25;;
23658;SDS011;12006;42.666;23.326;2022-09-09T11:51:02;4.65;;;4.18;;
23658;SDS011;12006;42.666;23.326;2022-09-09T11:53:28;6.60;;;5.65;;
23658;SDS011;12006;42.666;23.326;2022-09-09T11:56:12;6.10;;;5.57;;
23658;SDS011;12006;42.666;23.326;2022-09-09T11:58:53;6.03;;;5.53;;
23658;SDS011;12006;42.666;23.326;2022-09-09T12:01:29;5.32;;;4.85;;
23658;SDS011;12006;42.666;23.326;2022-09-09T12:04:01;5.72;;;5.22;;
23658;SDS011;12006;42.666;23.326;2022-09-09T12:06:41;6.57;;;5.97;;
23658;SDS011;12006;42.666;23.326;2022-09-09T12:09:54;5.72;;;5.22;;
23658;SDS011;12006;42.666;23.326;2022-09-09T12:11:53;5.00;;;4.60;;
23658;SDS011;12006;42.666;23.326;2022-09-09T12:14:43;5.82;;;5.00;;
23658;SDS011;12006;42.666;23.326;2022-09-09T12:19:40;5.78;;;5.28;;
23658;SDS011;12006;42.666;23.326;2022-09-09T12:24:45;5.93;;;5.30;;
23658;SDS011;12006;42.666;23.326;2022-09-09T12:27:16;6.60;;;5.90;;
23658;SDS011;12006;42.666;23.326;2022-09-09T12:29:49;7.30;;;6.60;;
23658;SDS011;12006;42.666;23.326;2022-09-09T12:32:20;8.13;;;7.32;;
23658;SDS011;12006;42.666;23.326;2022-09-09T12:34:58;11.63;;;8.70;;
23658;SDS011;12006;42.666;23.326;2022-09-09T12:37:41;7.10;;;6.47;;
23658;SDS011;12006;42.666;23.326;2022-09-09T12:42:44;7.63;;;5.50;;
23658;SDS011;12006;42.666;23.326;2022-09-09T12:45:20;5.88;;;5.38;;
23658;SDS011;12006;42.666;23.326;2022-09-09T12:50:32;5.53;;;5.03;;
23658;SDS011;12006;42.666;23.326;2022-09-09T12:53:01;7.88;;;5.93;;
23658;SDS011;12006;42.666;23.326;2022-09-09T12:55:31;5.93;;;5.03;;
23658;SDS011;12006;42.666;23.326;2022-09-09T12:57:58;6.82;;;5.47;;
23658;SDS011;12006;42.666;23.326;2022-09-09T13:00:25;7.45;;;5.07;;
23658;SDS011;12006;42.666;23.326;2022-09-09T13:02:53;8.65;;;5.95;;
23658;SDS011;12006;42.666;23.326;2022-09-09T13:05:20;6.88;;;5.10;;
23658;SDS011;12006;42.666;23.326;2022-09-09T13:07:46;7.07;;;5.60;;
23658;SDS011;12006;42.666;23.326;2022-09-09T13:10:13;6.75;;;5.72;;
23658;SDS011;12006;42.666;23.326;2022-09-09T13:12:38;7.47;;;5.68;;
23658;SDS011;12006;42.666;23.326;2022-09-09T13:15:04;7.13;;;6.43;;
23658;SDS011;12006;42.666;23.326;2022-09-09T13:17:35;8.70;;;7.60;;
23658;SDS011;12006;42.666;23.326;2022-09-09T13:20:01;5.50;;;5.00;;
23658;SDS011;12006;42.666;23.326;2022-09-09T13:22:31;5.68;;;5.20;;
23658;SDS011;12006;42.666;23.326;2022-09-09T13:25:40;5.25;;;4.75;;
23658;SDS011;12006;42.666;23.326;2022-09-09T13:35:27;5.38;;;4.97;;
23658;SDS011;12006;42.666;23.326;2022-09-09T13:37:52;5.88;;;5.32;;
23658;SDS011;12006;42.666;23.326;2022-09-09T13:40:19;8.25;;;4.90;;
23658;SDS011;12006;42.666;23.326;2022-09-09T13:42:46;6.35;;;5.75;;
23658;SDS011;12006;42.666;23.326;2022-09-09T13:45:15;5.57;;;4.95;;
23658;SDS011;12006;42.666;23.326;2022-09-09T13:47:42;4.88;;;4.45;;
23658;SDS011;12006;42.666;23.326;2022-09-09T13:50:23;6.35;;;5.80;;
23658;SDS011;12006;42.666;23.326;2022-09-09T13:52:50;5.78;;;4.95;;
23658;SDS011;12006;42.666;23.326;2022-09-09T13:55:16;6.85;;;5.25;;
23658;SDS011;12006;42.666;23.326;2022-09-09T13:57:51;6.90;;;6.13;;
23658;SDS011;12006;42.666;23.326;2022-09-09T14:00:17;6.07;;;5.13;;
23658;SDS011;12006;42.666;23.326;2022-09-09T14:02:42;5.38;;;4.72;;
23658;SDS011;12006;42.666;23.326;2022-09-09T14:05:09;5.68;;;5.18;;
23658;SDS011;12006;42.666;23.326;2022-09-09T14:07:34;4.95;;;4.53;;
23658;SDS011;12006;42.666;23.326;2022-09-09T14:09:59;4.97;;;4.57;;
23658;SDS011;12006;42.666;23.326;2022-09-09T14:12:25;5.55;;;4.70;;
23658;SDS011;12006;42.666;23.326;2022-09-09T14:14:50;6.45;;;5.88;;
23658;SDS011;12006;42.666;23.326;2022-09-09T14:17:15;5.18;;;4.47;;
23658;SDS011;12006;42.666;23.326;2022-09-09T14:19:40;7.20;;;6.53;;
23658;SDS011;12006;42.666;23.326;2022-09-09T14:22:06;7.03;;;6.43;;
23658;SDS011;12006;42.666;23.326;2022-09-09T14:24:31;6.88;;;6.20;;
23658;SDS011;12006;42.666;23.326;2022-09-09T14:26:57;5.85;;;5.35;;
23658;SDS011;12006;42.666;23.326;2022-09-09T14:29:22;6.57;;;5.97;;
23658;SDS011;12006;42.666;23.326;2022-09-09T14:31:47;7.72;;;5.93;;
23658;SDS011;12006;42.666;23.326;2022-09-09T14:34:12;7.25;;;5.63;;
23658;SDS011;12006;42.666;23.326;2022-09-09T14:36:39;6.07;;;5.47;;
23658;SDS011;12006;42.666;23.326;2022-09-09T14:39:05;5.68;;;5.18;;
23658;SDS011;12006;42.666;23.326;2022-09-09T14:41:30;5.57;;;4.90;;
23658;SDS011;12006;42.666;23.326;2022-09-09T14:43:56;6.35;;;5.18;;
23658;SDS011;12006;42.666;23.326;2022-09-09T14:46:22;8.95;;;5.95;;
23658;SDS011;12006;42.666;23.326;2022-09-09T14:48:48;7.07;;;6.38;;
23658;SDS011;12006;42.666;23.326;2022-09-09T14:51:16;8.95;;;5.82;;
23658;SDS011;12006;42.666;23.326;2022-09-09T14:53:43;5.22;;;4.80;;
23658;SDS011;12006;42.666;23.326;2022-09-09T14:58:34;6.13;;;5.00;;
23658;SDS011;12006;42.666;23.326;2022-09-09T15:01:09;7.07;;;5.93;;
23658;SDS011;12006;42.666;23.326;2022-09-09T15:03:36;6.15;;;5.03;;
23658;SDS011;12006;42.666;23.326;2022-09-09T15:06:05;6.72;;;5.20;;
23658;SDS011;12006;42.666;23.326;2022-09-09T15:08:31;6.28;;;5.65;;
23658;SDS011;12006;42.666;23.326;2022-09-09T15:11:00;6.80;;;5.68;;
23658;SDS011;12006;42.666;23.326;2022-09-09T15:13:26;6.32;;;5.72;;
23658;SDS011;12006;42.666;23.326;2022-09-09T15:15:51;6.47;;;5.72;;
23658;SDS011;12006;42.666;23.326;2022-09-09T15:18:16;6.72;;;5.40;;
23658;SDS011;12006;42.666;23.326;2022-09-09T15:20:45;7.25;;;5.82;;
23658;SDS011;12006;42.666;23.326;2022-09-09T15:23:11;7.40;;;5.88;;
23658;SDS011;12006;42.666;23.326;2022-09-09T15:25:36;7.07;;;5.97;;
23658;SDS011;12006;42.666;23.326;2022-09-09T15:28:01;6.38;;;5.55;;
23658;SDS011;12006;42.666;23.326;2022-09-09T15:30:27;4.88;;;4.47;;
23658;SDS011;12006;42.666;23.326;2022-09-09T15:32:52;6.22;;;5.13;;
23658;SDS011;12006;42.666;23.326;2022-09-09T15:35:18;7.47;;;5.07;;
23658;SDS011;12006;42.666;23.326;2022-09-09T15:37:43;4.40;;;3.92;;
23658;SDS011;12006;42.666;23.326;2022-09-09T15:40:09;6.20;;;4.82;;
23658;SDS011;12006;42.666;23.326;2022-09-09T15:42:34;7.38;;;5.72;;
23658;SDS011;12006;42.666;23.326;2022-09-09T15:44:59;6.30;;;5.13;;
23658;SDS011;12006;42.666;23.326;2022-09-09T15:47:25;5.90;;;5.30;;
23658;SDS011;12006;42.666;23.326;2022-09-09T15:49:50;6.00;;;5.40;;
23658;SDS011;12006;42.666;23.326;2022-09-09T15:52:15;6.38;;;5.40;;
23658;SDS011;12006;42.666;23.326;2022-09-09T15:54:40;8.32;;;5.72;;
23658;SDS011;12006;42.666;23.326;2022-09-09T15:57:09;6.00;;;5.30;;
23658;SDS011;12006;42.666;23.326;2022-09-09T15:59:36;7.47;;;5.45;;
23658;SDS011;12006;42.666;23.326;2022-09-09T16:02:01;5.90;;;4.90;;
23658;SDS011;12006;42.666;23.326;2022-09-09T16:04:27;6.68;;;5.40;;
23658;SDS011;12006;42.666;23.326;2022-09-09T16:07:03;6.95;;;6.25;;
23658;SDS011;12006;42.666;23.326;2022-09-09T16:09:29;6.03;;;5.43;;
23658;SDS011;12006;42.666;23.326;2022-09-09T16:11:58;6.45;;;5.95;;
23658;SDS011;12006;42.666;23.326;2022-09-09T16:14:25;6.78;;;5.60;;
23658;SDS011;12006;42.666;23.326;2022-09-09T16:16:51;6.72;;;5.63;;
23658;SDS011;12006;42.666;23.326;2022-09-09T16:19:16;8.50;;;7.05;;
23658;SDS011;12006;42.666;23.326;2022-09-09T16:21:42;8.25;;;6.38;;
23658;SDS011;12006;42.666;23.326;2022-09-09T16:24:09;8.02;;;6.38;;
23658;SDS011;12006;42.666;23.326;2022-09-09T16:26:35;6.82;;;6.10;;
23658;SDS011;12006;42.666;23.326;2022-09-09T16:29:00;6.13;;;5.38;;
23658;SDS011;12006;42.666;23.326;2022-09-09T16:31:27;8.30;;;5.88;;
23658;SDS011;12006;42.666;23.326;2022-09-09T16:33:53;9.13;;;6.53;;